Hizir — 9HA3348 — position and weather

sailwx.info

Track history (hours):
 
Tides and Currents Weather Stations Pressure Air Temp Water Temp Dewpoint Dewpoint Depression Visibility Wind Speed Wind Dir Waves Ship Positions

Hizir

Last reported at 2018-Feb-14 21:17 UTC. Time now 2018-Feb-22 13:19 UTC.
Position N 40°57' E 028°59'.

Length 121 m; draft 4.6 m.

Type: Cargo ship. MMSI: 229459000.

Date/timePositionNaut miles runAvg speedWind from/ knotsBaromVisibWave heightAir tempDewpointWater temp
2018-Feb-14 21:17N 40°57' E 028°59'2 5.6
2018-Feb-14 20:54N 40°56' E 028°56'2 0.2
2018-Feb-14 09:10N 40°54' E 028°55'1 8.2
2018-Feb-14 09:00N 40°53' E 028°54'4 9.1
2018-Feb-14 08:30N 40°51' E 028°49'  
2018-Feb-11 06:55N 39°43' E 018°59'4 9.8
2018-Feb-11 06:30N 39°46' E 018°56'5 9.7
2018-Feb-11 05:59N 39°50' E 018°53'4 9.4
2018-Feb-11 05:30N 39°54' E 018°49'5 9.3
2018-Feb-11 05:00N 39°57' E 018°46'5 9.6
2018-Feb-11 04:30N 40°01' E 018°42'  
Track history (hours):
 
Tides and Currents Weather Stations Pressure Air Temp Water Temp Dewpoint Dewpoint Depression Visibility Wind Speed Wind Dir Waves Ship Positions

Hizir

Last reported at 2018-Feb-14 21:17 UTC. Time now 2018-Feb-22 13:19 UTC.
Position N 40°57' E 028°59'.

Length 121 m; draft 4.6 m.

Type: Cargo ship. MMSI: 229459000.

Date/timePositionNaut miles runAvg speedWind from/ knotsBaromVisibWave heightAir tempDewpointWater temp
2018-Feb-14 21:17N 40°57' E 028°59'2 5.6
2018-Feb-14 20:54N 40°56' E 028°56'2 0.2
2018-Feb-14 09:10N 40°54' E 028°55'1 8.2
2018-Feb-14 09:00N 40°53' E 028°54'4 9.1
2018-Feb-14 08:30N 40°51' E 028°49'  
2018-Feb-11 06:55N 39°43' E 018°59'4 9.8
2018-Feb-11 06:30N 39°46' E 018°56'5 9.7
2018-Feb-11 05:59N 39°50' E 018°53'4 9.4
2018-Feb-11 05:30N 39°54' E 018°49'5 9.3
2018-Feb-11 05:00N 39°57' E 018°46'5 9.6
2018-Feb-11 04:30N 40°01' E 018°42'  

Dump ship's entire track history